Cartersville, Georgia
Current Conditions -  °F | °C
As of 10:53 AM on Thursday 30 Oct 2014 (Local Time) from KVPC Reporting Station
Clear Clear  
Wind Chill: 51°   Ceiling: Unl
Heat Index: 51°   Visibility: 10mi
Dew Point: 45°   Wind: 0mph
Humidity: 80%   Direction: NA
Pressure: 30.13"   Gusts: NA
Location:  34.17°N, 84.79°W
Report Text: KVPC 301453Z AUTO 00000KT 10SM CLR 11/07 A3013 RMK AO2 SLP198 T01060072 50007
Loading
Personal Weather Stations






























Interactive Weather Map
Tropical Storm Tracking
New forecast layout! Learn more

10-Day Weather Forecast

Advertisements
Track Severe Weather on mobile